Englewood, Colorado
Current Conditions -  °F | °C
As of 1:26 AM on Monday 22 Dec 2014 (Local Time) from KAPA Reporting Station
Light Snow Light Snow  
Wind Chill: 24°   Ceiling: 1900
Heat Index: 32°   Visibility: 1mi
Dew Point: 31°   Wind: 10mph
Humidity: 96%   Direction: 250°WSW
Pressure: 29.71"   Gusts: NA
Location:  39.65°N, 104.99°W
Report Text: KAPA 220826Z 25009KT 1SM -SN BR VV019 00/M01 A2971 RMK AO2 P0001 T00001006
Loading
Personal Weather Stations






























Interactive Weather Map New forecast layout! Learn more

10-Day Weather Forecast

Advertisements
Track Severe Weather on mobile